createdAt,value
2023-02-14T00:03:39.512Z,13.68
2023-02-14T00:08:44.147Z,13.80
2023-02-14T00:14:05.613Z,13.68
2023-02-14T00:19:07.100Z,12.15
2023-02-14T00:24:16.797Z,13.77
2023-02-14T00:29:22.949Z,11.73
2023-02-14T00:34:24.423Z,14.02
2023-02-14T00:39:25.882Z,12.32
2023-02-14T00:44:27.333Z,14.13
2023-02-14T00:49:28.798Z,15.30
2023-02-14T00:54:30.284Z,15.07
2023-02-14T00:59:31.729Z,14.10
2023-02-14T01:04:33.262Z,16.50
2023-02-14T01:09:34.745Z,14.70
2023-02-14T01:14:36.230Z,14.90
2023-02-14T01:19:38.275Z,13.40
2023-02-14T01:24:39.746Z,11.02
2023-02-14T01:29:41.230Z,12.68
2023-02-14T01:34:42.700Z,12.77
2023-02-14T01:39:44.178Z,15.20
2023-02-14T01:44:45.460Z,14.55
2023-02-14T01:49:49.515Z,13.43
2023-02-14T01:54:58.454Z,14.75
2023-02-14T02:00:19.873Z,13.50
2023-02-14T02:05:23.725Z,12.75
2023-02-14T02:10:25.224Z,13.13
2023-02-14T02:15:26.897Z,12.73
2023-02-14T02:20:46.680Z,12.65
2023-02-14T02:25:56.403Z,13.05
2023-02-14T02:31:21.014Z,12.63
2023-02-14T02:36:28.532Z,13.40
2023-02-14T02:41:48.417Z,13.57
2023-02-14T02:46:55.223Z,12.02
2023-02-14T02:52:15.277Z,13.52
2023-02-14T02:57:22.480Z,12.70
2023-02-14T03:02:27.898Z,13.27
2023-02-14T03:07:37.093Z,13.40
2023-02-14T03:12:54.097Z,11.70
2023-02-14T03:18:13.676Z,13.65
2023-02-14T03:23:23.731Z,12.75
2023-02-14T03:28:53.428Z,13.40
2023-02-14T03:34:16.331Z,12.07
2023-02-14T03:39:35.070Z,11.95
2023-02-14T03:44:36.528Z,13.10
2023-02-14T03:49:41.834Z,13.13
2023-02-14T03:54:43.296Z,12.82
2023-02-14T03:59:44.805Z,12.88
2023-02-14T04:04:47.022Z,13.13
2023-02-14T04:09:48.701Z,15.13
2023-02-14T04:14:50.163Z,14.18
2023-02-14T04:19:51.643Z,15.73
2023-02-14T04:24:53.105Z,17.65
2023-02-14T04:29:54.605Z,16.38
2023-02-14T04:34:56.068Z,17.33
2023-02-14T04:39:57.528Z,17.27
2023-02-14T04:44:59.123Z,17.45
2023-02-14T04:50:00.569Z,18.20
2023-02-14T04:55:02.045Z,18.00
2023-02-14T05:00:04.522Z,19.60
2023-02-14T05:05:06.383Z,18.75
2023-02-14T05:10:08.217Z,16.45
2023-02-14T05:15:09.867Z,20.27
2023-02-14T05:20:11.440Z,18.75
2023-02-14T05:25:12.898Z,20.38
2023-02-14T05:30:14.717Z,21.70
2023-02-14T05:35:16.262Z,20.90
2023-02-14T05:40:17.794Z,22.27
2023-02-14T05:45:19.250Z,20.83
2023-02-14T05:50:21.768Z,21.05
2023-02-14T05:55:24.592Z,21.75
2023-02-14T06:00:26.162Z,19.50
2023-02-14T06:05:27.705Z,20.17
2023-02-14T06:10:29.215Z,22.17
2023-02-14T06:15:30.677Z,19.98
2023-02-14T06:20:32.149Z,20.75
2023-02-14T06:25:33.661Z,21.15
2023-02-14T06:30:35.250Z,20.45
2023-02-14T06:35:36.799Z,22.30
2023-02-14T06:40:38.262Z,21.13
2023-02-14T06:45:43.498Z,22.80
2023-02-14T06:50:46.624Z,20.73
2023-02-14T07:00:49.386Z,21.25
2023-02-14T07:05:51.131Z,20.98
2023-02-14T07:10:55.976Z,22.23
2023-02-14T07:15:57.490Z,18.35
2023-02-14T07:20:59.264Z,21.98
2023-02-14T07:26:00.929Z,22.45
2023-02-14T07:31:02.961Z,21.65
2023-02-14T07:36:06.165Z,24.20
2023-02-14T07:41:07.634Z,20.95
2023-02-14T07:46:09.170Z,23.02
2023-02-14T07:51:11.149Z,23.67
2023-02-14T07:56:12.612Z,23.63
2023-02-14T08:01:14.483Z,23.52
2023-02-14T08:06:16.952Z,24.73
2023-02-14T08:11:36.798Z,22.90
2023-02-14T08:16:39.659Z,21.05
2023-02-14T08:21:41.113Z,24.13
2023-02-14T08:26:42.611Z,21.38
2023-02-14T08:31:44.153Z,22.33
2023-02-14T08:36:45.660Z,24.15
2023-02-14T08:41:47.147Z,23.63
2023-02-14T08:46:48.725Z,22.40
2023-02-14T08:51:50.253Z,23.70
2023-02-14T08:56:51.719Z,23.88
2023-02-14T09:01:53.199Z,23.55
2023-02-14T09:06:54.677Z,24.55
2023-02-14T09:11:57.199Z,23.05
2023-02-14T09:17:01.378Z,22.92
2023-02-14T09:22:03.890Z,21.75
2023-02-14T09:27:05.512Z,22.65
2023-02-14T09:32:07.179Z,23.17
2023-02-14T09:37:29.343Z,22.83
2023-02-14T09:42:44.381Z,23.00
2023-02-14T09:48:16.573Z,21.77
2023-02-14T09:53:29.957Z,22.40
2023-02-14T09:58:37.021Z,19.95
2023-02-14T10:03:49.121Z,19.58
2023-02-14T10:08:58.165Z,20.50
2023-02-14T10:14:08.177Z,23.27
2023-02-14T10:19:23.981Z,21.58
2023-02-14T10:24:33.974Z,21.85
2023-02-14T10:29:35.459Z,21.60
2023-02-14T10:34:43.980Z,21.52
2023-02-14T10:40:06.931Z,20.17
2023-02-14T10:45:19.908Z,21.58
2023-02-14T10:50:30.539Z,20.38
2023-02-14T10:55:44.104Z,20.30
2023-02-14T11:01:04.266Z,21.02
2023-02-14T11:06:05.978Z,19.98
2023-02-14T11:11:07.458Z,21.40
2023-02-14T11:16:11.158Z,18.33
2023-02-14T11:21:14.474Z,19.90
2023-02-14T11:26:31.634Z,18.75
2023-02-14T11:31:36.689Z,18.17
2023-02-14T11:36:41.904Z,20.50
2023-02-14T11:41:51.117Z,19.05
2023-02-14T11:46:54.046Z,19.15
2023-02-14T11:52:00.015Z,19.58
2023-02-14T11:57:23.026Z,17.98
2023-02-14T12:02:32.750Z,20.30
2023-02-14T12:07:37.233Z,20.77
2023-02-14T12:12:39.957Z,19.63
2023-02-14T12:17:41.411Z,19.83
2023-02-14T12:23:05.111Z,18.63
2023-02-14T12:28:13.290Z,18.75
2023-02-14T12:33:21.540Z,20.05
2023-02-14T12:38:46.022Z,20.30
2023-02-14T12:43:53.967Z,17.85
2023-02-14T12:49:17.517Z,19.38
2023-02-14T12:54:24.716Z,18.00
2023-02-14T12:59:30.921Z,18.05
2023-02-14T13:04:54.983Z,17.73
2023-02-14T13:10:44.443Z,17.20
2023-02-14T13:16:30.883Z,17.13
2023-02-14T13:21:34.347Z,17.42
2023-02-14T13:26:36.926Z,16.35
2023-02-14T13:31:38.441Z,18.95
2023-02-14T13:36:40.005Z,18.88
2023-02-14T13:41:41.904Z,19.58
2023-02-14T13:46:48.141Z,17.65
2023-02-14T13:51:50.119Z,17.27
2023-02-14T13:56:51.626Z,16.95
2023-02-14T14:01:53.084Z,18.55
2023-02-14T14:07:03.379Z,17.23
2023-02-14T14:12:27.027Z,17.23
2023-02-14T14:17:28.632Z,17.33
2023-02-14T14:22:30.106Z,18.33
2023-02-14T14:27:35.537Z,16.75
2023-02-14T14:32:37.896Z,18.27
2023-02-14T14:37:49.265Z,18.60
2023-02-14T14:42:50.736Z,17.83
2023-02-14T14:47:54.261Z,16.58
2023-02-14T14:53:06.510Z,17.85
2023-02-14T14:58:27.225Z,17.02
2023-02-14T15:03:29.206Z,18.60
2023-02-14T15:08:30.978Z,17.35
2023-02-14T15:13:50.093Z,18.52
2023-02-14T15:18:53.391Z,17.30
2023-02-14T15:23:54.944Z,17.05
2023-02-14T15:29:00.904Z,18.23
2023-02-14T15:34:03.066Z,17.27
2023-02-14T15:39:06.153Z,16.48
2023-02-14T15:49:19.852Z,15.82
2023-02-14T15:54:25.710Z,16.27
2023-02-14T15:59:31.334Z,15.23
2023-02-14T16:04:33.614Z,16.58
2023-02-14T16:09:35.127Z,17.90
2023-02-14T16:14:36.905Z,14.70
2023-02-14T16:19:42.222Z,14.98
2023-02-14T16:24:43.813Z,14.40
2023-02-14T16:29:45.274Z,16.98
2023-02-14T16:34:47.468Z,16.63
2023-02-14T16:39:49.970Z,16.33
2023-02-14T16:44:51.481Z,15.40
2023-02-14T16:49:53.992Z,16.55
2023-02-14T16:54:55.471Z,14.48
2023-02-14T16:59:57.057Z,17.95
2023-02-14T17:04:58.799Z,17.25
2023-02-14T17:10:03.183Z,16.10
2023-02-14T17:15:10.712Z,18.05
2023-02-14T17:20:12.562Z,17.17
2023-02-14T17:25:14.111Z,15.82
2023-02-14T17:30:15.719Z,15.88
2023-02-14T17:35:17.290Z,16.15
2023-02-14T17:40:18.882Z,17.25
2023-02-14T17:45:20.402Z,17.05
2023-02-14T17:50:21.897Z,15.85
2023-02-14T17:55:23.437Z,15.85
2023-02-14T18:00:25.049Z,17.20
2023-02-14T18:05:26.660Z,15.00
2023-02-14T18:10:28.477Z,15.48
2023-02-14T18:15:30.737Z,17.83
2023-02-14T18:20:32.208Z,16.90
2023-02-14T18:25:36.663Z,16.52
2023-02-14T18:30:38.181Z,14.30
2023-02-14T18:35:39.660Z,16.17
2023-02-14T18:40:41.549Z,16.40
2023-02-14T18:45:43.158Z,15.77
2023-02-14T18:50:44.750Z,18.33
2023-02-14T18:55:46.232Z,16.15
2023-02-14T19:00:47.768Z,15.27
2023-02-14T19:05:49.328Z,17.35
2023-02-14T19:10:50.795Z,17.35
2023-02-14T19:15:52.254Z,17.40
2023-02-14T19:20:53.766Z,16.25
2023-02-14T19:25:55.236Z,15.15
2023-02-14T19:30:59.157Z,17.35
2023-02-14T19:36:01.632Z,18.02
2023-02-14T19:41:03.284Z,17.35
2023-02-14T19:46:05.155Z,18.00
2023-02-14T19:51:06.773Z,15.90
2023-02-14T19:56:08.241Z,16.77
2023-02-14T20:01:26.932Z,17.90
2023-02-14T20:06:29.393Z,16.50
2023-02-14T20:11:56.456Z,18.13
2023-02-14T20:16:59.301Z,18.92
2023-02-14T20:22:00.838Z,18.25
2023-02-14T20:27:02.941Z,19.30
2023-02-14T20:32:05.320Z,18.00
2023-02-14T20:37:06.816Z,17.92
2023-02-14T20:42:08.733Z,17.02
2023-02-14T20:47:13.417Z,19.00
2023-02-14T20:52:17.873Z,18.35
2023-02-14T20:57:19.335Z,17.58
2023-02-14T21:02:20.827Z,18.13
2023-02-14T21:07:22.540Z,17.40
2023-02-14T21:12:24.002Z,19.95
2023-02-14T21:17:25.484Z,19.45
2023-02-14T21:22:26.977Z,17.73
2023-02-14T21:27:28.474Z,20.13
2023-02-14T21:32:30.026Z,17.77
2023-02-14T21:37:31.886Z,18.05
2023-02-14T21:42:33.384Z,17.70
2023-02-14T21:47:39.880Z,17.52
2023-02-14T21:52:41.657Z,18.42
2023-02-14T21:57:43.143Z,17.08
2023-02-14T22:02:44.658Z,19.33
2023-02-14T22:07:46.143Z,16.95
2023-02-14T22:12:47.613Z,18.38
2023-02-14T22:17:49.084Z,17.63
2023-02-14T22:22:50.574Z,18.90
2023-02-14T22:27:52.227Z,16.42
2023-02-14T22:32:53.724Z,17.50
2023-02-14T22:37:55.191Z,16.65
2023-02-14T22:42:57.982Z,16.77
2023-02-14T22:47:59.466Z,16.05
2023-02-14T22:53:03.693Z,17.45
2023-02-14T22:58:05.232Z,15.52
2023-02-14T23:03:06.765Z,15.90
2023-02-14T23:08:08.259Z,16.90
2023-02-14T23:13:28.256Z,15.48
2023-02-14T23:18:48.181Z,16.92
2023-02-14T23:23:49.635Z,18.58
2023-02-14T23:28:51.214Z,16.63
2023-02-14T23:33:52.908Z,17.73
2023-02-14T23:38:54.423Z,16.33
2023-02-14T23:43:55.892Z,17.60
2023-02-14T23:48:57.579Z,18.83
2023-02-14T23:53:59.053Z,15.52
2023-02-14T23:59:00.528Z,18.50
